sensor_id;sensor_type;location;lat;lon;timestamp;temperature;humidity
3876;DHT22;1953;51.222;6.624;2023-04-03T00:02:41;4.80;1.00
3876;DHT22;1953;51.222;6.624;2023-04-03T00:10:36;4.80;1.00
3876;DHT22;1953;51.222;6.624;2023-04-03T00:15:18;4.70;1.00
3876;DHT22;1953;51.222;6.624;2023-04-03T00:20:01;4.70;1.00
3876;DHT22;1953;51.222;6.624;2023-04-03T00:24:43;4.70;1.00
3876;DHT22;1953;51.222;6.624;2023-04-03T00:29:27;4.70;1.00
3876;DHT22;1953;51.222;6.624;2023-04-03T00:34:10;4.70;1.00
3876;DHT22;1953;51.222;6.624;2023-04-03T00:38:52;4.60;1.00
3876;DHT22;1953;51.222;6.624;2023-04-03T00:43:35;4.60;1.00
3876;DHT22;1953;51.222;6.624;2023-04-03T00:48:21;4.60;1.00
3876;DHT22;1953;51.222;6.624;2023-04-03T00:53:06;4.50;1.00
3876;DHT22;1953;51.222;6.624;2023-04-03T00:57:51;4.40;1.00
3876;DHT22;1953;51.222;6.624;2023-04-03T01:02:34;4.40;1.00
3876;DHT22;1953;51.222;6.624;2023-04-03T01:07:21;4.40;1.00
3876;DHT22;1953;51.222;6.624;2023-04-03T01:12:15;4.30;1.00
3876;DHT22;1953;51.222;6.624;2023-04-03T01:16:58;4.30;1.00
3876;DHT22;1953;51.222;6.624;2023-04-03T01:22:00;4.30;1.00
3876;DHT22;1953;51.222;6.624;2023-04-03T01:26:46;4.30;1.00
3876;DHT22;1953;51.222;6.624;2023-04-03T01:31:40;4.30;1.00
3876;DHT22;1953;51.222;6.624;2023-04-03T01:36:25;4.20;1.00
3876;DHT22;1953;51.222;6.624;2023-04-03T01:41:07;4.20;1.00
3876;DHT22;1953;51.222;6.624;2023-04-03T01:45:50;4.10;1.00
3876;DHT22;1953;51.222;6.624;2023-04-03T01:50:35;4.10;1.00
3876;DHT22;1953;51.222;6.624;2023-04-03T01:55:17;4.10;1.00
3876;DHT22;1953;51.222;6.624;2023-04-03T02:00:00;4.00;1.00
3876;DHT22;1953;51.222;6.624;2023-04-03T02:04:43;3.90;1.00
3876;DHT22;1953;51.222;6.624;2023-04-03T02:09:26;3.90;1.00
3876;DHT22;1953;51.222;6.624;2023-04-03T02:14:09;3.90;1.00
3876;DHT22;1953;51.222;6.624;2023-04-03T02:18:51;4.00;1.00
3876;DHT22;1953;51.222;6.624;2023-04-03T02:23:34;4.00;1.00
3876;DHT22;1953;51.222;6.624;2023-04-03T02:28:19;4.00;1.00
3876;DHT22;1953;51.222;6.624;2023-04-03T02:33:01;4.00;1.00
3876;DHT22;1953;51.222;6.624;2023-04-03T02:37:44;4.00;1.00
3876;DHT22;1953;51.222;6.624;2023-04-03T02:42:26;4.00;1.00
3876;DHT22;1953;51.222;6.624;2023-04-03T02:47:10;3.90;1.00
3876;DHT22;1953;51.222;6.624;2023-04-03T02:51:53;3.90;1.00
3876;DHT22;1953;51.222;6.624;2023-04-03T02:56:35;3.90;1.00
3876;DHT22;1953;51.222;6.624;2023-04-03T03:01:18;3.90;1.00
3876;DHT22;1953;51.222;6.624;2023-04-03T03:06:03;3.90;1.00
3876;DHT22;1953;51.222;6.624;2023-04-03T03:10:46;3.90;1.00
3876;DHT22;1953;51.222;6.624;2023-04-03T03:15:29;3.90;1.00
3876;DHT22;1953;51.222;6.624;2023-04-03T03:20:12;3.80;1.00
3876;DHT22;1953;51.222;6.624;2023-04-03T03:24:57;3.70;1.00
3876;DHT22;1953;51.222;6.624;2023-04-03T03:29:40;3.70;1.00
3876;DHT22;1953;51.222;6.624;2023-04-03T03:34:22;3.70;1.00
3876;DHT22;1953;51.222;6.624;2023-04-03T03:39:05;3.70;1.00
3876;DHT22;1953;51.222;6.624;2023-04-03T03:43:49;3.70;1.00
3876;DHT22;1953;51.222;6.624;2023-04-03T03:48:31;3.60;1.00
3876;DHT22;1953;51.222;6.624;2023-04-03T03:53:14;3.60;1.00
3876;DHT22;1953;51.222;6.624;2023-04-03T03:57:57;3.60;1.00
3876;DHT22;1953;51.222;6.624;2023-04-03T04:02:41;3.60;1.00
3876;DHT22;1953;51.222;6.624;2023-04-03T04:07:23;3.50;1.00
3876;DHT22;1953;51.222;6.624;2023-04-03T04:12:09;3.50;1.00
3876;DHT22;1953;51.222;6.624;2023-04-03T04:16:51;3.40;1.00
3876;DHT22;1953;51.222;6.624;2023-04-03T04:21:35;3.40;1.00
3876;DHT22;1953;51.222;6.624;2023-04-03T04:26:17;3.30;1.00
3876;DHT22;1953;51.222;6.624;2023-04-03T04:31:01;3.20;1.00
3876;DHT22;1953;51.222;6.624;2023-04-03T04:35:43;3.20;1.00
3876;DHT22;1953;51.222;6.624;2023-04-03T04:40:28;3.20;1.00
3876;DHT22;1953;51.222;6.624;2023-04-03T04:45:10;3.10;1.00
3876;DHT22;1953;51.222;6.624;2023-04-03T04:49:53;3.10;1.00
3876;DHT22;1953;51.222;6.624;2023-04-03T04:54:36;3.10;1.00
3876;DHT22;1953;51.222;6.624;2023-04-03T04:59:19;3.00;1.00
3876;DHT22;1953;51.222;6.624;2023-04-03T05:04:02;3.00;1.00
3876;DHT22;1953;51.222;6.624;2023-04-03T05:08:45;3.00;1.00
3876;DHT22;1953;51.222;6.624;2023-04-03T05:13:27;3.00;1.00
3876;DHT22;1953;51.222;6.624;2023-04-03T05:18:11;3.00;1.00
3876;DHT22;1953;51.222;6.624;2023-04-03T05:22:54;3.00;1.00
3876;DHT22;1953;51.222;6.624;2023-04-03T05:27:36;3.00;1.00
3876;DHT22;1953;51.222;6.624;2023-04-03T05:32:19;3.00;1.00
3876;DHT22;1953;51.222;6.624;2023-04-03T05:37:03;3.00;1.00
3876;DHT22;1953;51.222;6.624;2023-04-03T05:41:46;3.10;1.00
3876;DHT22;1953;51.222;6.624;2023-04-03T05:46:28;3.10;1.00
3876;DHT22;1953;51.222;6.624;2023-04-03T05:51:15;3.10;1.00
3876;DHT22;1953;51.222;6.624;2023-04-03T05:56:00;3.00;1.00
3876;DHT22;1953;51.222;6.624;2023-04-03T06:00:43;3.10;1.00
3876;DHT22;1953;51.222;6.624;2023-04-03T06:05:26;3.20;1.00
3876;DHT22;1953;51.222;6.624;2023-04-03T06:10:11;3.20;1.00
3876;DHT22;1953;51.222;6.624;2023-04-03T06:14:55;3.20;1.00
3876;DHT22;1953;51.222;6.624;2023-04-03T06:19:38;3.30;1.00
3876;DHT22;1953;51.222;6.624;2023-04-03T06:24:21;3.30;1.00
3876;DHT22;1953;51.222;6.624;2023-04-03T06:29:05;3.40;1.00
3876;DHT22;1953;51.222;6.624;2023-04-03T06:33:49;3.50;1.00
3876;DHT22;1953;51.222;6.624;2023-04-03T06:38:32;3.60;1.00
3876;DHT22;1953;51.222;6.624;2023-04-03T06:43:14;3.70;1.00
3876;DHT22;1953;51.222;6.624;2023-04-03T06:47:57;3.80;1.00
3876;DHT22;1953;51.222;6.624;2023-04-03T06:52:41;3.90;1.00
3876;DHT22;1953;51.222;6.624;2023-04-03T06:57:23;4.00;1.00
3876;DHT22;1953;51.222;6.624;2023-04-03T07:02:06;4.10;1.00
3876;DHT22;1953;51.222;6.624;2023-04-03T07:06:49;4.20;1.00
3876;DHT22;1953;51.222;6.624;2023-04-03T07:11:33;4.30;1.00
3876;DHT22;1953;51.222;6.624;2023-04-03T07:16:15;4.50;1.00
3876;DHT22;1953;51.222;6.624;2023-04-03T07:20:58;4.60;1.00
3876;DHT22;1953;51.222;6.624;2023-04-03T07:25:43;4.60;1.00
3876;DHT22;1953;51.222;6.624;2023-04-03T07:30:27;4.80;1.00
3876;DHT22;1953;51.222;6.624;2023-04-03T07:35:10;4.80;1.00
3876;DHT22;1953;51.222;6.624;2023-04-03T07:39:52;4.80;1.00
3876;DHT22;1953;51.222;6.624;2023-04-03T07:44:36;5.00;1.00
3876;DHT22;1953;51.222;6.624;2023-04-03T07:49:20;5.00;1.00
3876;DHT22;1953;51.222;6.624;2023-04-03T07:54:04;5.10;1.00
3876;DHT22;1953;51.222;6.624;2023-04-03T07:58:46;5.30;1.00
3876;DHT22;1953;51.222;6.624;2023-04-03T08:03:29;5.40;1.00
3876;DHT22;1953;51.222;6.624;2023-04-03T08:08:15;5.50;1.00
3876;DHT22;1953;51.222;6.624;2023-04-03T08:12:58;5.60;1.00
3876;DHT22;1953;51.222;6.624;2023-04-03T08:17:40;5.60;1.00
3876;DHT22;1953;51.222;6.624;2023-04-03T08:22:23;5.70;1.00
3876;DHT22;1953;51.222;6.624;2023-04-03T08:27:07;6.00;1.00
3876;DHT22;1953;51.222;6.624;2023-04-03T08:31:49;6.10;1.00
3876;DHT22;1953;51.222;6.624;2023-04-03T08:36:32;6.20;1.00
3876;DHT22;1953;51.222;6.624;2023-04-03T08:41:20;6.20;1.00
3876;DHT22;1953;51.222;6.624;2023-04-03T08:46:14;6.30;1.00
3876;DHT22;1953;51.222;6.624;2023-04-03T08:51:02;6.50;1.00
3876;DHT22;1953;51.222;6.624;2023-04-03T08:55:46;6.80;1.00
3876;DHT22;1953;51.222;6.624;2023-04-03T09:00:37;6.90;1.00
3876;DHT22;1953;51.222;6.624;2023-04-03T09:05:32;7.00;1.00
3876;DHT22;1953;51.222;6.624;2023-04-03T09:10:28;7.10;1.00
3876;DHT22;1953;51.222;6.624;2023-04-03T09:15:17;7.20;1.00
3876;DHT22;1953;51.222;6.624;2023-04-03T09:20:09;7.30;1.00
3876;DHT22;1953;51.222;6.624;2023-04-03T09:24:59;7.50;1.00
3876;DHT22;1953;51.222;6.624;2023-04-03T09:29:44;7.40;1.00
3876;DHT22;1953;51.222;6.624;2023-04-03T09:34:30;7.50;1.00
3876;DHT22;1953;51.222;6.624;2023-04-03T09:39:16;7.60;1.00
3876;DHT22;1953;51.222;6.624;2023-04-03T09:44:00;7.70;1.00
3876;DHT22;1953;51.222;6.624;2023-04-03T09:48:51;7.80;1.00
3876;DHT22;1953;51.222;6.624;2023-04-03T09:53:37;8.00;1.00
3876;DHT22;1953;51.222;6.624;2023-04-03T09:58:26;8.20;1.00
3876;DHT22;1953;51.222;6.624;2023-04-03T10:03:24;8.10;1.00
3876;DHT22;1953;51.222;6.624;2023-04-03T10:08:10;8.10;1.00
3876;DHT22;1953;51.222;6.624;2023-04-03T10:13:04;8.30;1.00
3876;DHT22;1953;51.222;6.624;2023-04-03T10:17:53;8.30;1.00
3876;DHT22;1953;51.222;6.624;2023-04-03T10:22:49;8.40;1.00
3876;DHT22;1953;51.222;6.624;2023-04-03T10:27:48;8.60;1.00
3876;DHT22;1953;51.222;6.624;2023-04-03T10:32:45;8.50;1.00
3876;DHT22;1953;51.222;6.624;2023-04-03T10:37:41;8.50;1.00
3876;DHT22;1953;51.222;6.624;2023-04-03T10:42:35;8.60;1.00
3876;DHT22;1953;51.222;6.624;2023-04-03T10:47:21;8.70;1.00
3876;DHT22;1953;51.222;6.624;2023-04-03T10:52:14;8.80;1.00
3876;DHT22;1953;51.222;6.624;2023-04-03T10:57:02;8.90;1.00
3876;DHT22;1953;51.222;6.624;2023-04-03T11:01:50;8.90;1.00
3876;DHT22;1953;51.222;6.624;2023-04-03T11:06:37;9.00;1.00
3876;DHT22;1953;51.222;6.624;2023-04-03T11:11:25;9.10;1.00
3876;DHT22;1953;51.222;6.624;2023-04-03T11:16:09;8.70;1.00
3876;DHT22;1953;51.222;6.624;2023-04-03T11:21:02;9.40;1.00
3876;DHT22;1953;51.222;6.624;2023-04-03T11:25:49;9.60;1.00
3876;DHT22;1953;51.222;6.624;2023-04-03T11:30:36;9.80;1.00
3876;DHT22;1953;51.222;6.624;2023-04-03T11:35:21;9.90;1.00
3876;DHT22;1953;51.222;6.624;2023-04-03T11:40:16;10.00;1.00
3876;DHT22;1953;51.222;6.624;2023-04-03T11:45:33;10.00;1.00
3876;DHT22;1953;51.222;6.624;2023-04-03T11:50:38;10.00;1.00
3876;DHT22;1953;51.222;6.624;2023-04-03T11:55:53;10.20;1.00
3876;DHT22;1953;51.222;6.624;2023-04-03T12:01:04;10.40;1.00
3876;DHT22;1953;51.222;6.624;2023-04-03T12:05:47;10.60;1.00
3876;DHT22;1953;51.222;6.624;2023-04-03T12:11:36;10.70;1.00
3876;DHT22;1953;51.222;6.624;2023-04-03T12:16:21;10.70;1.00
3876;DHT22;1953;51.222;6.624;2023-04-03T12:21:04;10.90;1.00
3876;DHT22;1953;51.222;6.624;2023-04-03T12:25:50;10.90;1.00
3876;DHT22;1953;51.222;6.624;2023-04-03T12:30:35;11.20;1.00
3876;DHT22;1953;51.222;6.624;2023-04-03T12:35:23;11.80;1.00
3876;DHT22;1953;51.222;6.624;2023-04-03T12:40:15;12.20;1.00
3876;DHT22;1953;51.222;6.624;2023-04-03T12:45:02;12.90;1.00
3876;DHT22;1953;51.222;6.624;2023-04-03T12:49:50;13.60;1.00
3876;DHT22;1953;51.222;6.624;2023-04-03T12:54:35;14.30;1.00
3876;DHT22;1953;51.222;6.624;2023-04-03T12:59:21;15.10;1.00
3876;DHT22;1953;51.222;6.624;2023-04-03T13:04:04;15.80;1.00
3876;DHT22;1953;51.222;6.624;2023-04-03T13:08:52;16.50;1.00
3876;DHT22;1953;51.222;6.624;2023-04-03T13:13:35;17.20;1.00
3876;DHT22;1953;51.222;6.624;2023-04-03T13:18:28;17.60;1.00
3876;DHT22;1953;51.222;6.624;2023-04-03T13:23:13;17.60;1.00
3876;DHT22;1953;51.222;6.624;2023-04-03T13:28:02;17.70;1.00
3876;DHT22;1953;51.222;6.624;2023-04-03T13:32:45;17.20;1.00
3876;DHT22;1953;51.222;6.624;2023-04-03T13:37:30;17.20;1.00
3876;DHT22;1953;51.222;6.624;2023-04-03T13:42:22;17.40;1.00
3876;DHT22;1953;51.222;6.624;2023-04-03T13:47:18;18.00;1.00
3876;DHT22;1953;51.222;6.624;2023-04-03T13:52:03;18.10;1.00
3876;DHT22;1953;51.222;6.624;2023-04-03T13:56:45;18.40;1.00
3876;DHT22;1953;51.222;6.624;2023-04-03T14:01:37;18.60;1.00
3876;DHT22;1953;51.222;6.624;2023-04-03T14:06:22;18.60;1.00
3876;DHT22;1953;51.222;6.624;2023-04-03T14:11:05;18.80;1.00
3876;DHT22;1953;51.222;6.624;2023-04-03T14:15:48;18.40;1.00
3876;DHT22;1953;51.222;6.624;2023-04-03T14:20:32;18.20;1.00
3876;DHT22;1953;51.222;6.624;2023-04-03T14:25:16;17.70;1.00
3876;DHT22;1953;51.222;6.624;2023-04-03T14:30:00;17.90;1.00
3876;DHT22;1953;51.222;6.624;2023-04-03T14:34:44;18.10;1.00
3876;DHT22;1953;51.222;6.624;2023-04-03T14:39:27;18.20;1.00
3876;DHT22;1953;51.222;6.624;2023-04-03T14:44:11;18.30;1.00
3876;DHT22;1953;51.222;6.624;2023-04-03T14:48:53;18.20;1.00
3876;DHT22;1953;51.222;6.624;2023-04-03T14:53:36;18.30;1.00
3876;DHT22;1953;51.222;6.624;2023-04-03T14:58:20;18.00;1.00
3876;DHT22;1953;51.222;6.624;2023-04-03T15:03:04;18.00;1.00
3876;DHT22;1953;51.222;6.624;2023-04-03T15:07:48;17.90;1.00
3876;DHT22;1953;51.222;6.624;2023-04-03T15:12:31;17.70;1.00
3876;DHT22;1953;51.222;6.624;2023-04-03T15:17:17;17.80;1.00
3876;DHT22;1953;51.222;6.624;2023-04-03T15:22:01;17.90;1.00
3876;DHT22;1953;51.222;6.624;2023-04-03T15:26:43;18.20;1.00
3876;DHT22;1953;51.222;6.624;2023-04-03T15:31:26;18.10;1.00
3876;DHT22;1953;51.222;6.624;2023-04-03T15:36:09;18.20;1.00
3876;DHT22;1953;51.222;6.624;2023-04-03T15:40:53;17.80;1.00
3876;DHT22;1953;51.222;6.624;2023-04-03T15:45:37;17.90;1.00
3876;DHT22;1953;51.222;6.624;2023-04-03T15:50:20;18.30;1.00
3876;DHT22;1953;51.222;6.624;2023-04-03T15:55:04;18.10;1.00
3876;DHT22;1953;51.222;6.624;2023-04-03T15:59:48;18.00;1.00
3876;DHT22;1953;51.222;6.624;2023-04-03T16:04:31;18.00;1.00
3876;DHT22;1953;51.222;6.624;2023-04-03T16:09:14;18.00;1.00
3876;DHT22;1953;51.222;6.624;2023-04-03T16:13:57;17.90;1.00
3876;DHT22;1953;51.222;6.624;2023-04-03T16:18:41;18.00;1.00
3876;DHT22;1953;51.222;6.624;2023-04-03T16:23:23;17.50;1.00
3876;DHT22;1953;51.222;6.624;2023-04-03T16:28:06;17.40;1.00
3876;DHT22;1953;51.222;6.624;2023-04-03T16:32:49;17.00;1.00
3876;DHT22;1953;51.222;6.624;2023-04-03T16:37:33;16.10;1.00
3876;DHT22;1953;51.222;6.624;2023-04-03T16:42:15;16.20;1.00
3876;DHT22;1953;51.222;6.624;2023-04-03T16:46:58;15.60;1.00
3876;DHT22;1953;51.222;6.624;2023-04-03T16:51:40;15.10;1.00
3876;DHT22;1953;51.222;6.624;2023-04-03T16:56:24;15.10;1.00
3876;DHT22;1953;51.222;6.624;2023-04-03T17:01:12;14.70;1.00
3876;DHT22;1953;51.222;6.624;2023-04-03T17:05:55;14.60;1.00
3876;DHT22;1953;51.222;6.624;2023-04-03T17:10:37;14.00;1.00
3876;DHT22;1953;51.222;6.624;2023-04-03T17:15:22;13.40;1.00
3876;DHT22;1953;51.222;6.624;2023-04-03T17:20:07;12.90;1.00
3876;DHT22;1953;51.222;6.624;2023-04-03T17:24:49;12.50;1.00
3876;DHT22;1953;51.222;6.624;2023-04-03T17:29:32;12.10;1.00
3876;DHT22;1953;51.222;6.624;2023-04-03T17:34:16;11.70;1.00
3876;DHT22;1953;51.222;6.624;2023-04-03T17:38:59;11.40;1.00
3876;DHT22;1953;51.222;6.624;2023-04-03T17:43:41;11.30;1.00
3876;DHT22;1953;51.222;6.624;2023-04-03T17:48:24;11.00;1.00
3876;DHT22;1953;51.222;6.624;2023-04-03T17:53:09;10.70;1.00
3876;DHT22;1953;51.222;6.624;2023-04-03T17:57:52;10.60;1.00
3876;DHT22;1953;51.222;6.624;2023-04-03T18:02:34;10.30;1.00
3876;DHT22;1953;51.222;6.624;2023-04-03T18:07:17;10.10;1.00
3876;DHT22;1953;51.222;6.624;2023-04-03T18:12:03;10.10;1.00
3876;DHT22;1953;51.222;6.624;2023-04-03T18:16:46;10.00;1.00
3876;DHT22;1953;51.222;6.624;2023-04-03T18:21:29;8.90;1.00
3876;DHT22;1953;51.222;6.624;2023-04-03T18:26:13;9.70;1.00
3876;DHT22;1953;51.222;6.624;2023-04-03T18:30:58;9.50;1.00
3876;DHT22;1953;51.222;6.624;2023-04-03T18:35:40;9.50;1.00
3876;DHT22;1953;51.222;6.624;2023-04-03T18:40:23;9.40;1.00
3876;DHT22;1953;51.222;6.624;2023-04-03T18:45:07;9.20;1.00
3876;DHT22;1953;51.222;6.624;2023-04-03T18:49:52;9.20;1.00
3876;DHT22;1953;51.222;6.624;2023-04-03T18:54:35;9.00;1.00
3876;DHT22;1953;51.222;6.624;2023-04-03T18:59:18;8.90;1.00
3876;DHT22;1953;51.222;6.624;2023-04-03T19:04:02;8.80;1.00
3876;DHT22;1953;51.222;6.624;2023-04-03T19:08:47;8.70;1.00
3876;DHT22;1953;51.222;6.624;2023-04-03T19:13:30;8.60;1.00
3876;DHT22;1953;51.222;6.624;2023-04-03T19:18:12;7.50;1.00
3876;DHT22;1953;51.222;6.624;2023-04-03T19:22:55;8.50;1.00
3876;DHT22;1953;51.222;6.624;2023-04-03T19:27:39;8.40;1.00
3876;DHT22;1953;51.222;6.624;2023-04-03T19:32:23;8.40;1.00
3876;DHT22;1953;51.222;6.624;2023-04-03T19:37:05;8.40;1.00
3876;DHT22;1953;51.222;6.624;2023-04-03T19:41:48;8.20;1.00
3876;DHT22;1953;51.222;6.624;2023-04-03T19:46:33;8.20;1.00
3876;DHT22;1953;51.222;6.624;2023-04-03T19:51:16;8.10;1.00
3876;DHT22;1953;51.222;6.624;2023-04-03T19:55:59;8.10;1.00
3876;DHT22;1953;51.222;6.624;2023-04-03T20:00:42;8.00;1.00
3876;DHT22;1953;51.222;6.624;2023-04-03T20:05:26;8.00;1.00
3876;DHT22;1953;51.222;6.624;2023-04-03T20:10:09;7.80;1.00
3876;DHT22;1953;51.222;6.624;2023-04-03T20:14:52;7.80;1.00
3876;DHT22;1953;51.222;6.624;2023-04-03T20:19:35;7.70;1.00
3876;DHT22;1953;51.222;6.624;2023-04-03T20:24:19;7.80;1.00
3876;DHT22;1953;51.222;6.624;2023-04-03T20:29:02;7.70;1.00
3876;DHT22;1953;51.222;6.624;2023-04-03T20:33:44;7.60;1.00
3876;DHT22;1953;51.222;6.624;2023-04-03T20:38:28;7.60;1.00
3876;DHT22;1953;51.222;6.624;2023-04-03T20:43:12;7.50;1.00
3876;DHT22;1953;51.222;6.624;2023-04-03T20:47:55;7.50;1.00
3876;DHT22;1953;51.222;6.624;2023-04-03T20:52:37;7.50;1.00
3876;DHT22;1953;51.222;6.624;2023-04-03T20:57:20;7.40;1.00
3876;DHT22;1953;51.222;6.624;2023-04-03T21:02:05;7.40;1.00
3876;DHT22;1953;51.222;6.624;2023-04-03T21:22:11;7.20;1.00
3876;DHT22;1953;51.222;6.624;2023-04-03T21:26:56;7.10;1.00
3876;DHT22;1953;51.222;6.624;2023-04-03T21:31:52;7.00;1.00
3876;DHT22;1953;51.222;6.624;2023-04-03T21:36:38;7.00;1.00
3876;DHT22;1953;51.222;6.624;2023-04-03T21:41:22;7.00;1.00
3876;DHT22;1953;51.222;6.624;2023-04-03T21:46:06;6.90;1.00
3876;DHT22;1953;51.222;6.624;2023-04-03T21:50:49;6.80;1.00
3876;DHT22;1953;51.222;6.624;2023-04-03T21:55:32;6.80;1.00
3876;DHT22;1953;51.222;6.624;2023-04-03T22:00:17;6.70;1.00
3876;DHT22;1953;51.222;6.624;2023-04-03T22:05:00;6.60;1.00
3876;DHT22;1953;51.222;6.624;2023-04-03T22:09:42;6.60;1.00
3876;DHT22;1953;51.222;6.624;2023-04-03T22:14:25;6.50;1.00
3876;DHT22;1953;51.222;6.624;2023-04-03T22:19:09;6.40;1.00
3876;DHT22;1953;51.222;6.624;2023-04-03T22:23:52;6.40;1.00
3876;DHT22;1953;51.222;6.624;2023-04-03T22:28:37;6.40;1.00
3876;DHT22;1953;51.222;6.624;2023-04-03T22:33:20;6.30;1.00
3876;DHT22;1953;51.222;6.624;2023-04-03T22:38:04;6.30;1.00
3876;DHT22;1953;51.222;6.624;2023-04-03T22:42:47;6.20;1.00
3876;DHT22;1953;51.222;6.624;2023-04-03T22:47:29;6.10;1.00
3876;DHT22;1953;51.222;6.624;2023-04-03T22:52:12;6.00;1.00
3876;DHT22;1953;51.222;6.624;2023-04-03T22:56:56;6.00;1.00
3876;DHT22;1953;51.222;6.624;2023-04-03T23:01:38;6.00;1.00
3876;DHT22;1953;51.222;6.624;2023-04-03T23:06:21;6.00;1.00
3876;DHT22;1953;51.222;6.624;2023-04-03T23:11:03;6.00;1.00
3876;DHT22;1953;51.222;6.624;2023-04-03T23:15:52;5.90;1.00
3876;DHT22;1953;51.222;6.624;2023-04-03T23:20:35;5.80;1.00
3876;DHT22;1953;51.222;6.624;2023-04-03T23:25:18;5.70;1.00
3876;DHT22;1953;51.222;6.624;2023-04-03T23:30:00;5.70;1.00
3876;DHT22;1953;51.222;6.624;2023-04-03T23:34:44;5.70;1.00
3876;DHT22;1953;51.222;6.624;2023-04-03T23:39:27;5.50;1.00
3876;DHT22;1953;51.222;6.624;2023-04-03T23:44:09;5.50;1.00
3876;DHT22;1953;51.222;6.624;2023-04-03T23:48:52;5.40;1.00
3876;DHT22;1953;51.222;6.624;2023-04-03T23:53:36;5.30;1.00
3876;DHT22;1953;51.222;6.624;2023-04-03T23:58:18;3.70;1.00
